sensor_id;sensor_type;location;lat;lon;timestamp;P1;durP1;ratioP1;P2;durP2;ratioP2
16845;SDS011;8539;53.188;8.696;2022-12-07T00:01:08;25.33;;;14.02;;
16845;SDS011;8539;53.188;8.696;2022-12-07T00:03:34;19.30;;;13.43;;
16845;SDS011;8539;53.188;8.696;2022-12-07T00:06:01;17.38;;;12.18;;
16845;SDS011;8539;53.188;8.696;2022-12-07T00:08:32;21.65;;;13.00;;
16845;SDS011;8539;53.188;8.696;2022-12-07T00:11:05;22.33;;;12.25;;
16845;SDS011;8539;53.188;8.696;2022-12-07T00:13:40;19.20;;;11.07;;
16845;SDS011;8539;53.188;8.696;2022-12-07T00:16:07;18.08;;;11.25;;
16845;SDS011;8539;53.188;8.696;2022-12-07T00:18:36;19.80;;;11.88;;
16845;SDS011;8539;53.188;8.696;2022-12-07T00:21:12;22.48;;;11.38;;
16845;SDS011;8539;53.188;8.696;2022-12-07T00:23:41;18.13;;;11.93;;
16845;SDS011;8539;53.188;8.696;2022-12-07T00:26:10;18.27;;;11.60;;
16845;SDS011;8539;53.188;8.696;2022-12-07T00:28:39;23.15;;;10.85;;
16845;SDS011;8539;53.188;8.696;2022-12-07T00:31:11;18.48;;;11.00;;
16845;SDS011;8539;53.188;8.696;2022-12-07T00:33:38;20.55;;;10.02;;
16845;SDS011;8539;53.188;8.696;2022-12-07T00:36:06;19.10;;;9.93;;
16845;SDS011;8539;53.188;8.696;2022-12-07T00:38:34;20.27;;;9.95;;
16845;SDS011;8539;53.188;8.696;2022-12-07T00:41:03;18.83;;;9.55;;
16845;SDS011;8539;53.188;8.696;2022-12-07T00:43:31;15.30;;;9.48;;
16845;SDS011;8539;53.188;8.696;2022-12-07T00:45:57;16.95;;;10.23;;
16845;SDS011;8539;53.188;8.696;2022-12-07T00:48:24;17.27;;;9.85;;
16845;SDS011;8539;53.188;8.696;2022-12-07T00:50:51;17.45;;;9.27;;
16845;SDS011;8539;53.188;8.696;2022-12-07T00:53:17;16.55;;;8.43;;
16845;SDS011;8539;53.188;8.696;2022-12-07T00:55:43;16.38;;;8.30;;
16845;SDS011;8539;53.188;8.696;2022-12-07T00:58:09;13.57;;;7.70;;
16845;SDS011;8539;53.188;8.696;2022-12-07T01:00:36;11.55;;;7.68;;
16845;SDS011;8539;53.188;8.696;2022-12-07T01:03:04;10.70;;;6.75;;
16845;SDS011;8539;53.188;8.696;2022-12-07T01:05:30;12.60;;;7.85;;
16845;SDS011;8539;53.188;8.696;2022-12-07T01:07:57;10.85;;;6.53;;
16845;SDS011;8539;53.188;8.696;2022-12-07T01:10:23;15.77;;;7.00;;
16845;SDS011;8539;53.188;8.696;2022-12-07T01:12:49;13.35;;;6.38;;
16845;SDS011;8539;53.188;8.696;2022-12-07T01:15:15;10.75;;;5.78;;
16845;SDS011;8539;53.188;8.696;2022-12-07T01:17:41;10.50;;;7.20;;
16845;SDS011;8539;53.188;8.696;2022-12-07T01:20:07;13.68;;;6.70;;
16845;SDS011;8539;53.188;8.696;2022-12-07T01:22:38;12.38;;;6.20;;
16845;SDS011;8539;53.188;8.696;2022-12-07T01:25:05;9.98;;;5.03;;
16845;SDS011;8539;53.188;8.696;2022-12-07T01:27:32;14.93;;;5.57;;
16845;SDS011;8539;53.188;8.696;2022-12-07T01:29:59;9.05;;;4.82;;
16845;SDS011;8539;53.188;8.696;2022-12-07T01:32:25;14.95;;;4.75;;
16845;SDS011;8539;53.188;8.696;2022-12-07T01:34:51;8.45;;;4.32;;
16845;SDS011;8539;53.188;8.696;2022-12-07T01:37:17;15.75;;;6.20;;
16845;SDS011;8539;53.188;8.696;2022-12-07T01:39:43;14.18;;;4.65;;
16845;SDS011;8539;53.188;8.696;2022-12-07T01:42:12;7.68;;;4.35;;
16845;SDS011;8539;53.188;8.696;2022-12-07T01:47:42;8.52;;;3.95;;
16845;SDS011;8539;53.188;8.696;2022-12-07T01:50:13;10.30;;;3.72;;
16845;SDS011;8539;53.188;8.696;2022-12-07T01:52:39;7.20;;;3.17;;
16845;SDS011;8539;53.188;8.696;2022-12-07T01:55:09;9.85;;;3.70;;
16845;SDS011;8539;53.188;8.696;2022-12-07T01:57:39;11.10;;;3.33;;
16845;SDS011;8539;53.188;8.696;2022-12-07T02:00:07;10.52;;;3.30;;
16845;SDS011;8539;53.188;8.696;2022-12-07T02:02:36;6.93;;;3.17;;
16845;SDS011;8539;53.188;8.696;2022-12-07T02:05:06;7.00;;;2.92;;
16845;SDS011;8539;53.188;8.696;2022-12-07T02:07:34;7.38;;;3.10;;
16845;SDS011;8539;53.188;8.696;2022-12-07T02:10:14;4.32;;;2.95;;
16845;SDS011;8539;53.188;8.696;2022-12-07T02:12:41;9.02;;;3.20;;
16845;SDS011;8539;53.188;8.696;2022-12-07T02:15:09;7.30;;;2.83;;
16845;SDS011;8539;53.188;8.696;2022-12-07T02:17:51;9.00;;;3.40;;
16845;SDS011;8539;53.188;8.696;2022-12-07T02:20:30;9.07;;;3.45;;
16845;SDS011;8539;53.188;8.696;2022-12-07T02:29:20;10.63;;;4.20;;
16845;SDS011;8539;53.188;8.696;2022-12-07T02:31:59;8.68;;;3.17;;
16845;SDS011;8539;53.188;8.696;2022-12-07T02:38:02;8.52;;;3.83;;
16845;SDS011;8539;53.188;8.696;2022-12-07T02:43:18;9.00;;;3.97;;
16845;SDS011;8539;53.188;8.696;2022-12-07T02:46:04;5.55;;;3.58;;
16845;SDS011;8539;53.188;8.696;2022-12-07T02:48:34;8.93;;;3.67;;
16845;SDS011;8539;53.188;8.696;2022-12-07T02:51:02;9.10;;;3.45;;
16845;SDS011;8539;53.188;8.696;2022-12-07T02:53:35;7.72;;;3.65;;
16845;SDS011;8539;53.188;8.696;2022-12-07T03:02:00;3.95;;;2.35;;
16845;SDS011;8539;53.188;8.696;2022-12-07T03:04:50;3.10;;;2.37;;
16845;SDS011;8539;53.188;8.696;2022-12-07T03:17:55;4.38;;;1.42;;
16845;SDS011;8539;53.188;8.696;2022-12-07T03:20:24;5.18;;;1.30;;
16845;SDS011;8539;53.188;8.696;2022-12-07T03:22:53;2.40;;;1.30;;
16845;SDS011;8539;53.188;8.696;2022-12-07T03:25:20;4.47;;;1.50;;
16845;SDS011;8539;53.188;8.696;2022-12-07T03:27:51;5.25;;;1.60;;
16845;SDS011;8539;53.188;8.696;2022-12-07T03:30:29;2.45;;;1.20;;
16845;SDS011;8539;53.188;8.696;2022-12-07T03:33:10;4.30;;;1.90;;
16845;SDS011;8539;53.188;8.696;2022-12-07T03:35:54;9.85;;;1.38;;
16845;SDS011;8539;53.188;8.696;2022-12-07T03:38:31;5.05;;;2.45;;
16845;SDS011;8539;53.188;8.696;2022-12-07T03:41:10;2.05;;;1.10;;
16845;SDS011;8539;53.188;8.696;2022-12-07T03:43:42;6.80;;;1.45;;
16845;SDS011;8539;53.188;8.696;2022-12-07T03:54:30;7.15;;;2.15;;
16845;SDS011;8539;53.188;8.696;2022-12-07T03:57:17;7.07;;;2.10;;
16845;SDS011;8539;53.188;8.696;2022-12-07T03:59:44;4.75;;;3.05;;
16845;SDS011;8539;53.188;8.696;2022-12-07T04:02:12;10.40;;;3.15;;
16845;SDS011;8539;53.188;8.696;2022-12-07T04:04:38;6.97;;;2.58;;
16845;SDS011;8539;53.188;8.696;2022-12-07T04:07:05;7.70;;;2.83;;
16845;SDS011;8539;53.188;8.696;2022-12-07T04:09:31;5.13;;;2.42;;
16845;SDS011;8539;53.188;8.696;2022-12-07T04:11:57;3.40;;;2.08;;
16845;SDS011;8539;53.188;8.696;2022-12-07T04:14:23;11.45;;;2.55;;
16845;SDS011;8539;53.188;8.696;2022-12-07T04:16:53;7.82;;;2.70;;
16845;SDS011;8539;53.188;8.696;2022-12-07T04:19:24;6.50;;;2.88;;
16845;SDS011;8539;53.188;8.696;2022-12-07T04:21:52;8.10;;;3.15;;
16845;SDS011;8539;53.188;8.696;2022-12-07T04:24:19;7.00;;;2.90;;
16845;SDS011;8539;53.188;8.696;2022-12-07T04:26:45;8.30;;;2.78;;
16845;SDS011;8539;53.188;8.696;2022-12-07T04:29:12;5.82;;;2.95;;
16845;SDS011;8539;53.188;8.696;2022-12-07T04:31:38;5.45;;;2.85;;
16845;SDS011;8539;53.188;8.696;2022-12-07T04:34:05;6.82;;;4.05;;
16845;SDS011;8539;53.188;8.696;2022-12-07T04:36:32;5.72;;;2.95;;
16845;SDS011;8539;53.188;8.696;2022-12-07T04:38:58;5.85;;;3.15;;
16845;SDS011;8539;53.188;8.696;2022-12-07T04:41:25;10.57;;;3.20;;
16845;SDS011;8539;53.188;8.696;2022-12-07T04:43:54;6.85;;;2.95;;
16845;SDS011;8539;53.188;8.696;2022-12-07T04:46:21;6.70;;;2.97;;
16845;SDS011;8539;53.188;8.696;2022-12-07T04:48:51;5.07;;;3.13;;
16845;SDS011;8539;53.188;8.696;2022-12-07T04:51:19;9.75;;;3.05;;
16845;SDS011;8539;53.188;8.696;2022-12-07T04:53:50;7.75;;;3.88;;
16845;SDS011;8539;53.188;8.696;2022-12-07T04:56:17;9.57;;;4.65;;
16845;SDS011;8539;53.188;8.696;2022-12-07T04:58:44;5.05;;;2.72;;
16845;SDS011;8539;53.188;8.696;2022-12-07T05:01:12;7.60;;;2.67;;
16845;SDS011;8539;53.188;8.696;2022-12-07T05:03:39;9.18;;;2.88;;
16845;SDS011;8539;53.188;8.696;2022-12-07T05:06:05;6.75;;;3.13;;
16845;SDS011;8539;53.188;8.696;2022-12-07T05:08:33;9.38;;;2.92;;
16845;SDS011;8539;53.188;8.696;2022-12-07T05:10:59;5.50;;;2.50;;
16845;SDS011;8539;53.188;8.696;2022-12-07T05:13:26;8.32;;;3.97;;
16845;SDS011;8539;53.188;8.696;2022-12-07T05:15:52;6.43;;;2.92;;
16845;SDS011;8539;53.188;8.696;2022-12-07T05:18:18;6.68;;;3.00;;
16845;SDS011;8539;53.188;8.696;2022-12-07T05:20:44;8.35;;;3.15;;
16845;SDS011;8539;53.188;8.696;2022-12-07T05:23:11;10.38;;;3.05;;
16845;SDS011;8539;53.188;8.696;2022-12-07T05:25:37;11.07;;;2.72;;
16845;SDS011;8539;53.188;8.696;2022-12-07T05:28:04;4.93;;;2.83;;
16845;SDS011;8539;53.188;8.696;2022-12-07T05:30:30;8.23;;;2.92;;
16845;SDS011;8539;53.188;8.696;2022-12-07T05:32:57;4.70;;;2.50;;
16845;SDS011;8539;53.188;8.696;2022-12-07T05:35:23;6.93;;;3.05;;
16845;SDS011;8539;53.188;8.696;2022-12-07T05:37:49;5.25;;;2.70;;
16845;SDS011;8539;53.188;8.696;2022-12-07T05:40:16;6.32;;;3.28;;
16845;SDS011;8539;53.188;8.696;2022-12-07T05:42:44;5.95;;;2.67;;
16845;SDS011;8539;53.188;8.696;2022-12-07T05:45:10;7.88;;;3.15;;
16845;SDS011;8539;53.188;8.696;2022-12-07T05:47:36;5.97;;;2.40;;
16845;SDS011;8539;53.188;8.696;2022-12-07T05:50:03;7.55;;;2.35;;
16845;SDS011;8539;53.188;8.696;2022-12-07T05:52:30;9.65;;;2.30;;
16845;SDS011;8539;53.188;8.696;2022-12-07T05:54:57;4.05;;;2.08;;
16845;SDS011;8539;53.188;8.696;2022-12-07T05:57:23;3.58;;;1.90;;
16845;SDS011;8539;53.188;8.696;2022-12-07T05:59:49;8.45;;;2.60;;
16845;SDS011;8539;53.188;8.696;2022-12-07T06:02:15;6.25;;;1.77;;
16845;SDS011;8539;53.188;8.696;2022-12-07T06:04:42;4.68;;;1.65;;
16845;SDS011;8539;53.188;8.696;2022-12-07T06:07:11;4.05;;;1.30;;
16845;SDS011;8539;53.188;8.696;2022-12-07T06:09:38;7.05;;;1.63;;
16845;SDS011;8539;53.188;8.696;2022-12-07T06:12:05;3.33;;;1.77;;
16845;SDS011;8539;53.188;8.696;2022-12-07T06:14:50;3.13;;;2.00;;
16845;SDS011;8539;53.188;8.696;2022-12-07T06:17:16;5.10;;;1.77;;
16845;SDS011;8539;53.188;8.696;2022-12-07T06:19:42;5.25;;;2.22;;
16845;SDS011;8539;53.188;8.696;2022-12-07T06:22:09;3.20;;;1.55;;
16845;SDS011;8539;53.188;8.696;2022-12-07T06:24:37;3.17;;;1.60;;
16845;SDS011;8539;53.188;8.696;2022-12-07T06:27:03;4.22;;;1.27;;
16845;SDS011;8539;53.188;8.696;2022-12-07T06:29:30;6.43;;;1.60;;
16845;SDS011;8539;53.188;8.696;2022-12-07T06:31:56;2.38;;;1.13;;
16845;SDS011;8539;53.188;8.696;2022-12-07T06:34:23;3.65;;;1.65;;
16845;SDS011;8539;53.188;8.696;2022-12-07T06:36:51;6.55;;;1.67;;
16845;SDS011;8539;53.188;8.696;2022-12-07T06:39:19;2.17;;;1.10;;
16845;SDS011;8539;53.188;8.696;2022-12-07T06:41:52;2.38;;;1.00;;
16845;SDS011;8539;53.188;8.696;2022-12-07T06:44:19;7.32;;;1.25;;
16845;SDS011;8539;53.188;8.696;2022-12-07T06:46:47;6.05;;;1.25;;
16845;SDS011;8539;53.188;8.696;2022-12-07T06:49:14;5.53;;;1.40;;
16845;SDS011;8539;53.188;8.696;2022-12-07T06:51:41;4.10;;;1.67;;
16845;SDS011;8539;53.188;8.696;2022-12-07T06:54:08;3.83;;;3.28;;
16845;SDS011;8539;53.188;8.696;2022-12-07T06:56:36;2.40;;;2.03;;
16845;SDS011;8539;53.188;8.696;2022-12-07T06:59:03;3.92;;;2.70;;
16845;SDS011;8539;53.188;8.696;2022-12-07T07:01:30;5.60;;;2.92;;
16845;SDS011;8539;53.188;8.696;2022-12-07T07:03:57;9.90;;;3.10;;
16845;SDS011;8539;53.188;8.696;2022-12-07T07:06:23;5.45;;;2.30;;
16845;SDS011;8539;53.188;8.696;2022-12-07T07:08:49;4.55;;;1.92;;
16845;SDS011;8539;53.188;8.696;2022-12-07T07:11:15;3.92;;;2.13;;
16845;SDS011;8539;53.188;8.696;2022-12-07T07:13:41;6.63;;;1.80;;
16845;SDS011;8539;53.188;8.696;2022-12-07T07:16:07;5.65;;;1.80;;
16845;SDS011;8539;53.188;8.696;2022-12-07T07:18:34;3.08;;;1.73;;
16845;SDS011;8539;53.188;8.696;2022-12-07T07:21:02;5.78;;;1.88;;
16845;SDS011;8539;53.188;8.696;2022-12-07T07:23:28;9.05;;;2.13;;
16845;SDS011;8539;53.188;8.696;2022-12-07T07:25:54;5.82;;;1.38;;
16845;SDS011;8539;53.188;8.696;2022-12-07T07:28:22;1.85;;;1.45;;
16845;SDS011;8539;53.188;8.696;2022-12-07T07:30:48;5.35;;;1.98;;
16845;SDS011;8539;53.188;8.696;2022-12-07T07:33:17;2.92;;;1.80;;
16845;SDS011;8539;53.188;8.696;2022-12-07T07:35:43;3.88;;;1.88;;
16845;SDS011;8539;53.188;8.696;2022-12-07T07:38:09;7.25;;;2.33;;
16845;SDS011;8539;53.188;8.696;2022-12-07T07:40:36;2.72;;;1.40;;
16845;SDS011;8539;53.188;8.696;2022-12-07T07:43:02;9.57;;;2.75;;
16845;SDS011;8539;53.188;8.696;2022-12-07T07:45:28;6.43;;;2.00;;
16845;SDS011;8539;53.188;8.696;2022-12-07T07:47:54;5.82;;;1.90;;
16845;SDS011;8539;53.188;8.696;2022-12-07T07:50:20;7.65;;;2.45;;
16845;SDS011;8539;53.188;8.696;2022-12-07T07:52:47;3.78;;;2.00;;
16845;SDS011;8539;53.188;8.696;2022-12-07T07:55:14;5.53;;;2.10;;
16845;SDS011;8539;53.188;8.696;2022-12-07T07:57:40;8.63;;;1.98;;
16845;SDS011;8539;53.188;8.696;2022-12-07T08:00:09;6.45;;;2.15;;
16845;SDS011;8539;53.188;8.696;2022-12-07T08:02:37;6.07;;;2.10;;
16845;SDS011;8539;53.188;8.696;2022-12-07T08:05:04;4.32;;;2.25;;
16845;SDS011;8539;53.188;8.696;2022-12-07T08:07:31;6.35;;;2.88;;
16845;SDS011;8539;53.188;8.696;2022-12-07T08:09:57;7.43;;;2.20;;
16845;SDS011;8539;53.188;8.696;2022-12-07T08:12:23;9.73;;;1.85;;
16845;SDS011;8539;53.188;8.696;2022-12-07T08:14:49;7.65;;;1.90;;
16845;SDS011;8539;53.188;8.696;2022-12-07T08:17:15;3.50;;;1.85;;
16845;SDS011;8539;53.188;8.696;2022-12-07T08:19:42;10.32;;;2.80;;
16845;SDS011;8539;53.188;8.696;2022-12-07T08:22:08;4.68;;;1.30;;
16845;SDS011;8539;53.188;8.696;2022-12-07T08:24:34;5.45;;;1.45;;
16845;SDS011;8539;53.188;8.696;2022-12-07T08:27:00;5.95;;;1.85;;
16845;SDS011;8539;53.188;8.696;2022-12-07T08:29:26;5.80;;;2.13;;
16845;SDS011;8539;53.188;8.696;2022-12-07T08:31:52;6.20;;;2.03;;
16845;SDS011;8539;53.188;8.696;2022-12-07T08:34:18;2.55;;;1.60;;
16845;SDS011;8539;53.188;8.696;2022-12-07T08:36:44;4.13;;;1.98;;
16845;SDS011;8539;53.188;8.696;2022-12-07T08:39:13;3.08;;;2.03;;
16845;SDS011;8539;53.188;8.696;2022-12-07T08:41:39;3.63;;;1.73;;
16845;SDS011;8539;53.188;8.696;2022-12-07T08:44:05;8.05;;;1.63;;
16845;SDS011;8539;53.188;8.696;2022-12-07T08:46:50;2.35;;;1.15;;
16845;SDS011;8539;53.188;8.696;2022-12-07T08:49:26;4.32;;;1.30;;
16845;SDS011;8539;53.188;8.696;2022-12-07T08:51:57;5.72;;;1.35;;
16845;SDS011;8539;53.188;8.696;2022-12-07T08:54:23;2.90;;;0.63;;
16845;SDS011;8539;53.188;8.696;2022-12-07T08:56:49;4.15;;;0.73;;
16845;SDS011;8539;53.188;8.696;2022-12-07T08:59:19;7.82;;;1.33;;
16845;SDS011;8539;53.188;8.696;2022-12-07T09:01:46;8.35;;;1.52;;
16845;SDS011;8539;53.188;8.696;2022-12-07T09:04:12;4.80;;;2.22;;
16845;SDS011;8539;53.188;8.696;2022-12-07T09:06:38;5.50;;;1.30;;
16845;SDS011;8539;53.188;8.696;2022-12-07T09:09:04;7.32;;;1.98;;
16845;SDS011;8539;53.188;8.696;2022-12-07T09:11:32;3.45;;;1.10;;
16845;SDS011;8539;53.188;8.696;2022-12-07T09:14:00;2.95;;;1.33;;
16845;SDS011;8539;53.188;8.696;2022-12-07T09:16:26;6.00;;;1.58;;
16845;SDS011;8539;53.188;8.696;2022-12-07T09:18:53;5.45;;;1.67;;
16845;SDS011;8539;53.188;8.696;2022-12-07T09:21:19;3.03;;;1.05;;
16845;SDS011;8539;53.188;8.696;2022-12-07T09:23:45;5.97;;;1.20;;
16845;SDS011;8539;53.188;8.696;2022-12-07T09:26:11;5.45;;;1.40;;
16845;SDS011;8539;53.188;8.696;2022-12-07T09:28:37;3.03;;;1.50;;
16845;SDS011;8539;53.188;8.696;2022-12-07T09:31:04;5.03;;;1.73;;
16845;SDS011;8539;53.188;8.696;2022-12-07T09:33:30;10.05;;;2.05;;
16845;SDS011;8539;53.188;8.696;2022-12-07T09:35:58;5.07;;;1.85;;
16845;SDS011;8539;53.188;8.696;2022-12-07T09:38:24;6.65;;;2.05;;
16845;SDS011;8539;53.188;8.696;2022-12-07T09:40:52;5.53;;;1.73;;
16845;SDS011;8539;53.188;8.696;2022-12-07T09:43:22;7.45;;;2.15;;
16845;SDS011;8539;53.188;8.696;2022-12-07T09:45:51;6.00;;;2.25;;
16845;SDS011;8539;53.188;8.696;2022-12-07T09:48:20;5.22;;;1.80;;
16845;SDS011;8539;53.188;8.696;2022-12-07T09:50:50;4.45;;;1.80;;
16845;SDS011;8539;53.188;8.696;2022-12-07T09:53:20;5.18;;;1.98;;
16845;SDS011;8539;53.188;8.696;2022-12-07T09:55:51;6.82;;;1.88;;
16845;SDS011;8539;53.188;8.696;2022-12-07T09:58:25;4.05;;;1.70;;
16845;SDS011;8539;53.188;8.696;2022-12-07T10:00:53;6.28;;;2.20;;
16845;SDS011;8539;53.188;8.696;2022-12-07T10:03:26;3.95;;;1.50;;
16845;SDS011;8539;53.188;8.696;2022-12-07T10:05:54;10.48;;;2.47;;
16845;SDS011;8539;53.188;8.696;2022-12-07T10:08:21;5.22;;;1.90;;
16845;SDS011;8539;53.188;8.696;2022-12-07T10:10:52;7.88;;;1.58;;
16845;SDS011;8539;53.188;8.696;2022-12-07T10:18:19;5.70;;;1.88;;
16845;SDS011;8539;53.188;8.696;2022-12-07T10:21:03;10.43;;;2.13;;
16845;SDS011;8539;53.188;8.696;2022-12-07T10:23:35;5.32;;;2.17;;
16845;SDS011;8539;53.188;8.696;2022-12-07T10:26:26;5.95;;;3.10;;
16845;SDS011;8539;53.188;8.696;2022-12-07T10:28:54;7.30;;;2.22;;
16845;SDS011;8539;53.188;8.696;2022-12-07T10:31:23;3.60;;;1.98;;
16845;SDS011;8539;53.188;8.696;2022-12-07T10:39:11;9.82;;;2.35;;
16845;SDS011;8539;53.188;8.696;2022-12-07T10:44:41;3.05;;;1.80;;
16845;SDS011;8539;53.188;8.696;2022-12-07T10:53:27;6.93;;;1.88;;
16845;SDS011;8539;53.188;8.696;2022-12-07T11:04:01;5.63;;;1.35;;
16845;SDS011;8539;53.188;8.696;2022-12-07T11:18:06;6.80;;;1.45;;
16845;SDS011;8539;53.188;8.696;2022-12-07T11:20:43;8.80;;;1.55;;
16845;SDS011;8539;53.188;8.696;2022-12-07T11:26:34;5.40;;;1.15;;
16845;SDS011;8539;53.188;8.696;2022-12-07T11:29:44;4.72;;;1.73;;
16845;SDS011;8539;53.188;8.696;2022-12-07T11:35:25;5.65;;;1.65;;
16845;SDS011;8539;53.188;8.696;2022-12-07T11:37:57;9.32;;;1.65;;
16845;SDS011;8539;53.188;8.696;2022-12-07T11:40:37;4.30;;;1.38;;
16845;SDS011;8539;53.188;8.696;2022-12-07T11:43:09;7.05;;;1.58;;
16845;SDS011;8539;53.188;8.696;2022-12-07T11:45:42;2.78;;;1.30;;
16845;SDS011;8539;53.188;8.696;2022-12-07T11:48:54;4.85;;;1.35;;
16845;SDS011;8539;53.188;8.696;2022-12-07T11:51:09;4.95;;;1.27;;
16845;SDS011;8539;53.188;8.696;2022-12-07T11:53:40;2.50;;;1.55;;
16845;SDS011;8539;53.188;8.696;2022-12-07T11:56:13;5.05;;;2.30;;
16845;SDS011;8539;53.188;8.696;2022-12-07T11:59:04;3.85;;;1.23;;
16845;SDS011;8539;53.188;8.696;2022-12-07T12:06:39;5.97;;;1.50;;
16845;SDS011;8539;53.188;8.696;2022-12-07T12:12:23;3.42;;;1.48;;
16845;SDS011;8539;53.188;8.696;2022-12-07T12:22:38;3.60;;;1.50;;
16845;SDS011;8539;53.188;8.696;2022-12-07T12:25:11;9.50;;;1.40;;
16845;SDS011;8539;53.188;8.696;2022-12-07T12:27:47;4.90;;;1.33;;
16845;SDS011;8539;53.188;8.696;2022-12-07T12:30:26;4.93;;;1.50;;
16845;SDS011;8539;53.188;8.696;2022-12-07T12:33:00;6.47;;;1.27;;
16845;SDS011;8539;53.188;8.696;2022-12-07T12:36:16;1.35;;;0.98;;
16845;SDS011;8539;53.188;8.696;2022-12-07T12:51:53;1.75;;;0.90;;
16845;SDS011;8539;53.188;8.696;2022-12-07T12:57:36;6.55;;;1.10;;
16845;SDS011;8539;53.188;8.696;2022-12-07T13:00:15;4.93;;;2.55;;
16845;SDS011;8539;53.188;8.696;2022-12-07T13:02:53;1.88;;;0.88;;
16845;SDS011;8539;53.188;8.696;2022-12-07T13:05:21;4.55;;;1.00;;
16845;SDS011;8539;53.188;8.696;2022-12-07T13:08:10;5.72;;;1.10;;
16845;SDS011;8539;53.188;8.696;2022-12-07T13:10:48;3.58;;;0.93;;
16845;SDS011;8539;53.188;8.696;2022-12-07T13:15:44;5.30;;;1.95;;
16845;SDS011;8539;53.188;8.696;2022-12-07T13:28:42;7.30;;;1.75;;
16845;SDS011;8539;53.188;8.696;2022-12-07T13:33:47;3.40;;;1.45;;
16845;SDS011;8539;53.188;8.696;2022-12-07T13:36:30;7.93;;;1.95;;
16845;SDS011;8539;53.188;8.696;2022-12-07T13:39:11;9.52;;;1.45;;
16845;SDS011;8539;53.188;8.696;2022-12-07T13:41:37;15.43;;;1.63;;
16845;SDS011;8539;53.188;8.696;2022-12-07T13:44:11;6.07;;;1.55;;
16845;SDS011;8539;53.188;8.696;2022-12-07T13:49:28;3.78;;;0.88;;
16845;SDS011;8539;53.188;8.696;2022-12-07T13:52:06;7.53;;;2.55;;
16845;SDS011;8539;53.188;8.696;2022-12-07T13:54:45;4.68;;;1.58;;
16845;SDS011;8539;53.188;8.696;2022-12-07T13:57:37;4.93;;;1.55;;
16845;SDS011;8539;53.188;8.696;2022-12-07T14:00:04;7.25;;;1.55;;
16845;SDS011;8539;53.188;8.696;2022-12-07T14:02:53;7.93;;;2.63;;
16845;SDS011;8539;53.188;8.696;2022-12-07T14:05:25;7.28;;;2.30;;
16845;SDS011;8539;53.188;8.696;2022-12-07T14:10:29;6.88;;;2.42;;
16845;SDS011;8539;53.188;8.696;2022-12-07T14:15:22;6.40;;;1.20;;
16845;SDS011;8539;53.188;8.696;2022-12-07T14:17:53;2.35;;;1.00;;
16845;SDS011;8539;53.188;8.696;2022-12-07T14:22:58;3.22;;;1.83;;
16845;SDS011;8539;53.188;8.696;2022-12-07T14:25:25;2.90;;;0.75;;
16845;SDS011;8539;53.188;8.696;2022-12-07T14:27:53;5.82;;;1.08;;
16845;SDS011;8539;53.188;8.696;2022-12-07T14:30:26;2.47;;;0.75;;
16845;SDS011;8539;53.188;8.696;2022-12-07T14:33:00;2.80;;;0.55;;
16845;SDS011;8539;53.188;8.696;2022-12-07T14:35:28;5.75;;;1.83;;
16845;SDS011;8539;53.188;8.696;2022-12-07T14:37:56;0.63;;;0.60;;
16845;SDS011;8539;53.188;8.696;2022-12-07T14:40:23;3.13;;;0.70;;
16845;SDS011;8539;53.188;8.696;2022-12-07T14:43:02;2.35;;;0.60;;
16845;SDS011;8539;53.188;8.696;2022-12-07T14:45:35;3.83;;;1.90;;
16845;SDS011;8539;53.188;8.696;2022-12-07T14:48:01;1.88;;;1.00;;
16845;SDS011;8539;53.188;8.696;2022-12-07T14:50:27;5.55;;;1.45;;
16845;SDS011;8539;53.188;8.696;2022-12-07T14:53:00;17.35;;;2.47;;
16845;SDS011;8539;53.188;8.696;2022-12-07T14:55:34;2.13;;;1.00;;
16845;SDS011;8539;53.188;8.696;2022-12-07T14:58:00;5.55;;;2.22;;
16845;SDS011;8539;53.188;8.696;2022-12-07T15:00:26;4.53;;;2.45;;
16845;SDS011;8539;53.188;8.696;2022-12-07T15:02:53;6.93;;;2.85;;
16845;SDS011;8539;53.188;8.696;2022-12-07T15:05:20;9.68;;;2.35;;
16845;SDS011;8539;53.188;8.696;2022-12-07T15:07:48;5.57;;;2.40;;
16845;SDS011;8539;53.188;8.696;2022-12-07T15:10:17;5.15;;;2.90;;
16845;SDS011;8539;53.188;8.696;2022-12-07T15:12:45;6.70;;;2.42;;
16845;SDS011;8539;53.188;8.696;2022-12-07T15:15:12;6.85;;;3.92;;
16845;SDS011;8539;53.188;8.696;2022-12-07T15:17:38;8.43;;;3.50;;
16845;SDS011;8539;53.188;8.696;2022-12-07T15:20:05;10.23;;;3.50;;
16845;SDS011;8539;53.188;8.696;2022-12-07T15:22:36;10.88;;;4.07;;
16845;SDS011;8539;53.188;8.696;2022-12-07T15:25:03;10.88;;;3.88;;
16845;SDS011;8539;53.188;8.696;2022-12-07T15:27:31;10.07;;;3.20;;
16845;SDS011;8539;53.188;8.696;2022-12-07T15:29:57;4.93;;;2.92;;
16845;SDS011;8539;53.188;8.696;2022-12-07T15:32:23;8.90;;;3.53;;
16845;SDS011;8539;53.188;8.696;2022-12-07T15:34:49;6.32;;;2.90;;
16845;SDS011;8539;53.188;8.696;2022-12-07T15:37:15;13.20;;;3.72;;
16845;SDS011;8539;53.188;8.696;2022-12-07T15:39:41;6.05;;;3.35;;
16845;SDS011;8539;53.188;8.696;2022-12-07T15:42:07;12.82;;;3.70;;
16845;SDS011;8539;53.188;8.696;2022-12-07T15:44:33;6.13;;;3.10;;
16845;SDS011;8539;53.188;8.696;2022-12-07T15:47:20;7.00;;;3.45;;
16845;SDS011;8539;53.188;8.696;2022-12-07T15:49:47;4.50;;;2.30;;
16845;SDS011;8539;53.188;8.696;2022-12-07T15:52:13;7.65;;;3.38;;
16845;SDS011;8539;53.188;8.696;2022-12-07T15:54:39;8.07;;;2.15;;
16845;SDS011;8539;53.188;8.696;2022-12-07T15:57:05;9.15;;;4.13;;
16845;SDS011;8539;53.188;8.696;2022-12-07T15:59:31;7.00;;;2.55;;
16845;SDS011;8539;53.188;8.696;2022-12-07T16:01:57;9.43;;;3.03;;
16845;SDS011;8539;53.188;8.696;2022-12-07T16:04:24;5.45;;;2.75;;
16845;SDS011;8539;53.188;8.696;2022-12-07T16:06:51;5.85;;;2.80;;
16845;SDS011;8539;53.188;8.696;2022-12-07T16:09:18;6.30;;;3.08;;
16845;SDS011;8539;53.188;8.696;2022-12-07T16:11:44;10.65;;;5.05;;
16845;SDS011;8539;53.188;8.696;2022-12-07T16:14:10;12.50;;;4.82;;
16845;SDS011;8539;53.188;8.696;2022-12-07T16:16:37;9.57;;;3.50;;
16845;SDS011;8539;53.188;8.696;2022-12-07T16:19:05;7.00;;;2.90;;
16845;SDS011;8539;53.188;8.696;2022-12-07T16:21:34;3.95;;;2.70;;
16845;SDS011;8539;53.188;8.696;2022-12-07T16:24:01;6.05;;;2.55;;
16845;SDS011;8539;53.188;8.696;2022-12-07T16:26:31;7.25;;;2.92;;
16845;SDS011;8539;53.188;8.696;2022-12-07T16:28:59;7.63;;;2.70;;
16845;SDS011;8539;53.188;8.696;2022-12-07T16:31:26;5.90;;;2.65;;
16845;SDS011;8539;53.188;8.696;2022-12-07T16:33:56;5.97;;;2.47;;
16845;SDS011;8539;53.188;8.696;2022-12-07T16:36:25;8.48;;;2.80;;
16845;SDS011;8539;53.188;8.696;2022-12-07T16:38:52;6.00;;;2.35;;
16845;SDS011;8539;53.188;8.696;2022-12-07T16:41:19;4.72;;;2.92;;
16845;SDS011;8539;53.188;8.696;2022-12-07T16:43:45;5.35;;;1.95;;
16845;SDS011;8539;53.188;8.696;2022-12-07T16:46:11;7.75;;;2.60;;
16845;SDS011;8539;53.188;8.696;2022-12-07T16:48:39;7.05;;;2.72;;
16845;SDS011;8539;53.188;8.696;2022-12-07T16:51:06;4.57;;;3.08;;
16845;SDS011;8539;53.188;8.696;2022-12-07T16:53:37;4.13;;;3.55;;
16845;SDS011;8539;53.188;8.696;2022-12-07T16:56:05;10.40;;;4.95;;
16845;SDS011;8539;53.188;8.696;2022-12-07T16:58:36;6.45;;;2.47;;
16845;SDS011;8539;53.188;8.696;2022-12-07T17:01:12;10.27;;;2.30;;
16845;SDS011;8539;53.188;8.696;2022-12-07T17:03:40;6.00;;;2.13;;
16845;SDS011;8539;53.188;8.696;2022-12-07T17:06:16;7.13;;;1.77;;
16845;SDS011;8539;53.188;8.696;2022-12-07T17:08:47;5.72;;;2.35;;
16845;SDS011;8539;53.188;8.696;2022-12-07T17:11:21;3.45;;;1.65;;
16845;SDS011;8539;53.188;8.696;2022-12-07T17:13:50;4.63;;;1.75;;
16845;SDS011;8539;53.188;8.696;2022-12-07T17:16:35;4.18;;;1.70;;
16845;SDS011;8539;53.188;8.696;2022-12-07T17:19:05;13.82;;;4.40;;
16845;SDS011;8539;53.188;8.696;2022-12-07T17:21:32;9.93;;;5.63;;
16845;SDS011;8539;53.188;8.696;2022-12-07T17:23:59;6.82;;;3.55;;
16845;SDS011;8539;53.188;8.696;2022-12-07T17:26:26;5.13;;;3.05;;
16845;SDS011;8539;53.188;8.696;2022-12-07T17:28:53;6.25;;;2.67;;
16845;SDS011;8539;53.188;8.696;2022-12-07T17:31:20;6.38;;;2.28;;
16845;SDS011;8539;53.188;8.696;2022-12-07T17:33:47;12.25;;;4.07;;
16845;SDS011;8539;53.188;8.696;2022-12-07T17:36:18;4.05;;;1.65;;